createdAt,value
2019-03-27T00:00:39.807Z,80.40
2019-03-27T00:03:08.666Z,79.00
2019-03-27T00:05:37.724Z,79.30
2019-03-27T00:08:07.657Z,79.60
2019-03-27T00:10:36.466Z,79.60
2019-03-27T00:13:06.062Z,78.50
2019-03-27T00:15:34.745Z,77.00
2019-03-27T00:18:03.779Z,77.20
2019-03-27T00:20:34.235Z,77.90
2019-03-27T00:23:02.929Z,77.10
2019-03-27T00:25:31.873Z,76.10
2019-03-27T00:28:02.670Z,75.80
2019-03-27T00:30:35.817Z,76.20
2019-03-27T00:33:06.624Z,77.10
2019-03-27T00:35:37.280Z,77.10
2019-03-27T00:38:07.963Z,77.60
2019-03-27T00:40:36.937Z,76.30
2019-03-27T00:43:06.566Z,78.20
2019-03-27T00:45:39.509Z,77.50
2019-03-27T00:48:08.548Z,76.60
2019-03-27T00:50:37.787Z,76.40
2019-03-27T00:53:07.804Z,76.00
2019-03-27T00:55:36.906Z,77.50
2019-03-27T00:58:07.297Z,76.00
2019-03-27T01:01:12.749Z,76.40
2019-03-27T01:03:42.461Z,75.20
2019-03-27T01:06:15.596Z,77.40
2019-03-27T01:08:44.606Z,77.90
2019-03-27T01:11:14.274Z,75.90
2019-03-27T01:13:43.618Z,76.90
2019-03-27T01:16:16.562Z,77.20
2019-03-27T01:18:45.624Z,78.00
2019-03-27T01:21:14.867Z,78.20
2019-03-27T01:23:45.697Z,77.50
2019-03-27T01:26:14.632Z,76.60
2019-03-27T01:28:43.792Z,76.20
2019-03-27T01:31:14.351Z,76.70
2019-03-27T01:33:43.260Z,76.70
2019-03-27T01:36:12.152Z,76.40
2019-03-27T01:38:41.473Z,76.70
2019-03-27T01:41:10.353Z,76.60
2019-03-27T01:43:40.171Z,76.00
2019-03-27T01:46:09.894Z,76.10
2019-03-27T01:48:38.789Z,75.90
2019-03-27T01:51:07.681Z,75.40
2019-03-27T01:53:36.362Z,75.80
2019-03-27T01:56:06.156Z,76.20
2019-03-27T01:58:35.086Z,75.60
2019-03-27T02:01:03.990Z,76.60
2019-03-27T02:03:33.037Z,76.50
2019-03-27T02:06:02.023Z,77.80
2019-03-27T02:08:32.828Z,78.10
2019-03-27T02:11:01.502Z,77.60
2019-03-27T02:13:30.413Z,76.20
2019-03-27T02:16:06.841Z,77.50
2019-03-27T02:18:30.960Z,77.60
2019-03-27T02:21:00.164Z,77.90
2019-03-27T02:23:29.052Z,77.80
2019-03-27T02:26:00.926Z,77.60
2019-03-27T02:28:29.632Z,77.60
2019-03-27T02:30:58.455Z,77.50
2019-03-27T02:33:27.802Z,77.50
2019-03-27T02:35:56.528Z,77.50
2019-03-27T02:38:25.208Z,77.30
2019-03-27T02:41:00.734Z,76.10
2019-03-27T02:43:29.624Z,77.20
2019-03-27T02:45:58.340Z,78.10
2019-03-27T02:48:27.200Z,78.10
2019-03-27T02:50:55.964Z,78.20
2019-03-27T02:53:25.459Z,77.80
2019-03-27T02:55:54.297Z,77.60
2019-03-27T02:58:23.377Z,77.70
2019-03-27T03:00:52.098Z,77.60
2019-03-27T03:03:20.977Z,78.20
2019-03-27T03:05:49.649Z,78.60
2019-03-27T03:08:19.855Z,79.50
2019-03-27T03:10:48.887Z,79.70
2019-03-27T03:13:17.927Z,79.90
2019-03-27T03:15:46.898Z,80.00
2019-03-27T03:18:15.796Z,80.20
2019-03-27T03:20:45.620Z,79.70
2019-03-27T03:23:14.321Z,79.20
2019-03-27T03:25:43.204Z,79.30
2019-03-27T03:28:12.072Z,79.70
2019-03-27T03:30:40.860Z,80.50
2019-03-27T03:33:09.790Z,81.10
2019-03-27T03:35:39.966Z,80.30
2019-03-27T03:38:09.304Z,80.10
2019-03-27T03:40:38.197Z,79.20
2019-03-27T03:43:07.407Z,79.50
2019-03-27T03:45:36.076Z,79.10
2019-03-27T03:48:04.932Z,80.30
2019-03-27T03:50:41.949Z,79.10
2019-03-27T03:53:13.397Z,79.50
2019-03-27T03:55:42.842Z,79.30
2019-03-27T03:58:16.092Z,79.00
2019-03-27T04:00:45.288Z,79.00
2019-03-27T04:03:14.200Z,79.40
2019-03-27T04:05:43.131Z,80.10
2019-03-27T04:08:11.989Z,79.20
2019-03-27T04:10:41.099Z,79.10
2019-03-27T04:13:11.409Z,79.60
2019-03-27T04:15:45.244Z,79.00
2019-03-27T04:18:14.154Z,78.90
2019-03-27T04:20:43.021Z,78.70
2019-03-27T04:23:13.842Z,78.50
2019-03-27T04:26:08.315Z,78.90
2019-03-27T04:28:13.902Z,78.40
2019-03-27T04:30:43.222Z,78.30
2019-03-27T04:33:13.470Z,77.60
2019-03-27T04:35:42.308Z,77.40
2019-03-27T04:38:11.440Z,76.80
2019-03-27T04:40:40.411Z,77.90
2019-03-27T04:43:09.100Z,77.40
2019-03-27T04:45:37.997Z,77.30
2019-03-27T04:48:06.898Z,77.60
2019-03-27T04:50:35.682Z,77.90
2019-03-27T04:53:04.596Z,77.20
2019-03-27T04:55:33.342Z,79.10
2019-03-27T04:58:02.154Z,78.40
2019-03-27T05:00:30.889Z,78.10
2019-03-27T05:02:59.630Z,77.90
2019-03-27T05:05:28.534Z,77.40
2019-03-27T05:07:57.243Z,77.10
2019-03-27T05:10:26.811Z,76.70
2019-03-27T05:12:55.757Z,76.30
2019-03-27T05:15:24.590Z,75.90
2019-03-27T05:17:53.422Z,76.00
2019-03-27T05:20:22.234Z,75.90
2019-03-27T05:22:51.703Z,76.20
2019-03-27T05:25:22.608Z,76.30
2019-03-27T05:27:53.320Z,76.30
2019-03-27T05:30:28.702Z,76.20
2019-03-27T05:32:57.955Z,75.90
2019-03-27T05:35:26.654Z,75.50
2019-03-27T05:37:55.887Z,75.90
2019-03-27T05:40:25.892Z,75.90
2019-03-27T05:43:00.808Z,75.90
2019-03-27T05:45:27.449Z,76.00
2019-03-27T05:47:59.759Z,77.80
2019-03-27T05:50:31.196Z,76.50
2019-03-27T05:52:59.849Z,76.20
2019-03-27T05:55:28.862Z,75.50
2019-03-27T05:57:57.737Z,75.70
2019-03-27T06:00:26.727Z,74.90
2019-03-27T06:02:57.220Z,75.80
2019-03-27T06:05:26.998Z,74.80
2019-03-27T06:07:55.665Z,74.70
2019-03-27T06:10:24.586Z,74.60
2019-03-27T06:12:54.627Z,75.30
2019-03-27T06:15:23.337Z,75.20
2019-03-27T06:17:52.493Z,75.30
2019-03-27T06:20:27.813Z,75.50
2019-03-27T06:22:57.807Z,74.60
2019-03-27T06:25:26.531Z,74.40
2019-03-27T06:27:55.547Z,72.30
2019-03-27T06:30:24.239Z,73.70
2019-03-27T06:32:53.981Z,73.00
2019-03-27T06:35:23.074Z,72.70
2019-03-27T06:37:51.767Z,72.00
2019-03-27T06:40:20.494Z,72.00
2019-03-27T06:42:49.425Z,71.10
2019-03-27T06:45:18.103Z,70.80
2019-03-27T06:47:46.866Z,70.80
2019-03-27T06:50:16.084Z,70.10
2019-03-27T06:52:46.584Z,69.60
2019-03-27T06:55:15.569Z,70.30
2019-03-27T06:57:44.265Z,69.30
2019-03-27T07:00:13.611Z,69.00
2019-03-27T07:02:42.524Z,68.70
2019-03-27T07:05:12.048Z,68.10
2019-03-27T07:07:40.994Z,67.60
2019-03-27T07:10:10.665Z,67.10
2019-03-27T07:12:39.391Z,65.20
2019-03-27T07:15:08.590Z,64.60
2019-03-27T07:17:37.541Z,65.00
2019-03-27T07:20:07.210Z,65.60
2019-03-27T07:22:43.623Z,66.00
2019-03-27T07:25:12.510Z,67.50
2019-03-27T07:27:41.923Z,66.60
2019-03-27T07:30:11.836Z,66.00
2019-03-27T07:32:40.725Z,65.40
2019-03-27T07:35:09.450Z,65.50
2019-03-27T07:37:38.214Z,62.90
2019-03-27T07:40:08.249Z,62.90
2019-03-27T07:42:37.937Z,61.00
2019-03-27T07:45:09.610Z,61.70
2019-03-27T07:47:38.525Z,61.10
2019-03-27T07:50:08.188Z,60.70
2019-03-27T07:52:36.997Z,60.90
2019-03-27T07:55:18.766Z,60.10
2019-03-27T07:57:36.644Z,60.30
2019-03-27T08:00:10.636Z,60.30
2019-03-27T08:02:39.640Z,59.70
2019-03-27T08:05:09.193Z,60.70
2019-03-27T08:07:39.907Z,58.90
2019-03-27T08:10:08.860Z,56.90
2019-03-27T08:12:37.757Z,56.00
2019-03-27T08:15:07.470Z,54.90
2019-03-27T08:17:36.337Z,52.00
2019-03-27T08:20:06.609Z,48.10
2019-03-27T08:22:35.326Z,49.40
2019-03-27T08:25:04.806Z,49.00
2019-03-27T08:27:33.722Z,46.40
2019-03-27T08:30:02.814Z,48.40
2019-03-27T08:32:31.487Z,46.90
2019-03-27T08:35:00.488Z,43.60
2019-03-27T08:37:30.445Z,44.50
2019-03-27T08:39:59.197Z,45.40
2019-03-27T08:42:28.268Z,43.70
2019-03-27T08:44:57.513Z,44.50
2019-03-27T08:47:26.622Z,44.30
2019-03-27T08:49:55.698Z,44.60
2019-03-27T08:52:24.447Z,44.90
2019-03-27T08:54:53.127Z,45.40
2019-03-27T08:57:26.110Z,44.30
2019-03-27T08:59:54.768Z,44.70
2019-03-27T09:02:24.537Z,41.60
2019-03-27T09:04:53.468Z,42.60
2019-03-27T09:07:22.165Z,43.50
2019-03-27T09:09:51.038Z,43.30
2019-03-27T09:12:19.749Z,44.20
2019-03-27T09:14:48.764Z,43.50
2019-03-27T09:17:20.295Z,43.10
2019-03-27T09:19:48.994Z,40.30
2019-03-27T09:22:17.800Z,40.60
2019-03-27T09:24:47.779Z,40.40
2019-03-27T09:27:16.476Z,39.30
2019-03-27T09:29:45.364Z,39.20
2019-03-27T09:32:14.065Z,40.70
2019-03-27T09:34:42.747Z,37.40
2019-03-27T09:37:11.661Z,38.40
2019-03-27T09:39:40.343Z,37.50
2019-03-27T09:42:09.329Z,37.20
2019-03-27T09:44:38.045Z,37.50
2019-03-27T09:47:06.763Z,37.20
2019-03-27T09:49:48.609Z,38.70
2019-03-27T09:52:06.447Z,38.20
2019-03-27T09:54:37.001Z,39.10
2019-03-27T09:57:06.871Z,39.90
2019-03-27T09:59:35.575Z,40.80
2019-03-27T10:02:04.825Z,40.70
2019-03-27T10:04:34.012Z,40.50
2019-03-27T10:07:04.851Z,38.10
2019-03-27T10:09:33.915Z,39.90
2019-03-27T10:12:02.843Z,38.10
2019-03-27T10:14:33.744Z,38.00
2019-03-27T10:17:02.763Z,38.40
2019-03-27T10:19:31.804Z,38.10
2019-03-27T10:22:00.656Z,38.70
2019-03-27T10:24:29.577Z,39.50
2019-03-27T10:26:59.909Z,37.80
2019-03-27T10:29:29.404Z,40.50
2019-03-27T10:31:58.069Z,39.30
2019-03-27T10:34:26.790Z,40.20
2019-03-27T10:36:55.661Z,39.10
2019-03-27T10:39:24.331Z,36.00
2019-03-27T10:41:55.794Z,36.00
2019-03-27T10:44:24.728Z,36.80
2019-03-27T10:46:53.619Z,37.70
2019-03-27T10:49:22.821Z,38.50
2019-03-27T10:51:51.707Z,37.90
2019-03-27T10:54:20.434Z,34.10
2019-03-27T10:56:49.136Z,36.10
2019-03-27T10:59:17.994Z,36.50
2019-03-27T11:01:47.639Z,36.80
2019-03-27T11:04:17.621Z,37.70
2019-03-27T11:06:46.618Z,37.60
2019-03-27T11:09:15.402Z,35.80
2019-03-27T11:11:44.133Z,34.70
2019-03-27T11:14:14.840Z,37.80
2019-03-27T11:16:43.567Z,35.80
2019-03-27T11:19:12.244Z,37.40
2019-03-27T11:21:41.139Z,35.50
2019-03-27T11:24:09.816Z,34.00
2019-03-27T11:26:38.629Z,34.90
2019-03-27T11:29:07.568Z,32.40
2019-03-27T11:31:36.613Z,32.30
2019-03-27T11:34:05.787Z,34.20
2019-03-27T11:36:35.283Z,36.50
2019-03-27T11:39:08.342Z,33.30
2019-03-27T11:41:37.370Z,33.80
2019-03-27T11:44:06.044Z,32.10
2019-03-27T11:46:35.617Z,31.30
2019-03-27T11:49:05.426Z,32.30
2019-03-27T11:51:34.290Z,30.10
2019-03-27T11:54:02.984Z,28.90
2019-03-27T11:56:33.671Z,28.90
2019-03-27T11:59:02.512Z,28.30
2019-03-27T12:01:39.612Z,29.50
2019-03-27T12:04:03.627Z,29.00
2019-03-27T12:06:32.569Z,28.20
2019-03-27T12:09:01.259Z,29.50
2019-03-27T12:11:31.372Z,28.40
2019-03-27T12:14:00.159Z,28.10
2019-03-27T12:16:28.846Z,27.70
2019-03-27T12:18:57.532Z,27.90
2019-03-27T12:21:26.460Z,28.40
2019-03-27T12:23:56.130Z,27.60
2019-03-27T12:26:27.304Z,27.70
2019-03-27T12:28:56.272Z,28.60
2019-03-27T12:31:25.482Z,28.70
2019-03-27T12:33:54.588Z,28.40
2019-03-27T12:36:23.280Z,28.60
2019-03-27T12:38:52.279Z,28.50
2019-03-27T12:41:21.183Z,29.00
2019-03-27T12:43:50.211Z,29.70
2019-03-27T12:46:19.016Z,29.60
2019-03-27T12:48:47.886Z,30.00
2019-03-27T12:51:16.607Z,29.20
2019-03-27T12:53:45.465Z,28.90
2019-03-27T12:56:14.135Z,28.10
2019-03-27T12:58:42.907Z,29.10
2019-03-27T13:01:11.742Z,28.30
2019-03-27T13:03:44.200Z,29.00
2019-03-27T13:06:11.737Z,29.00
2019-03-27T13:08:40.559Z,29.00
2019-03-27T13:11:09.460Z,29.10
2019-03-27T13:13:38.131Z,27.90
2019-03-27T13:16:07.140Z,28.40
2019-03-27T13:18:36.466Z,29.10
2019-03-27T13:21:05.185Z,29.20
2019-03-27T13:23:33.895Z,30.00
2019-03-27T13:26:02.721Z,30.70
2019-03-27T13:28:33.069Z,31.40
2019-03-27T13:31:02.245Z,31.90
2019-03-27T13:33:32.703Z,31.50
2019-03-27T13:36:01.498Z,30.90
2019-03-27T13:38:30.372Z,31.60
2019-03-27T13:41:05.825Z,31.90
2019-03-27T13:43:34.715Z,32.90
2019-03-27T13:46:06.442Z,31.30
2019-03-27T13:48:35.165Z,31.30
2019-03-27T13:51:04.069Z,31.70
2019-03-27T13:53:32.811Z,30.90
2019-03-27T13:56:01.534Z,30.90
2019-03-27T13:58:30.339Z,30.50
2019-03-27T14:00:59.241Z,31.10
2019-03-27T14:03:28.121Z,31.20
2019-03-27T14:05:57.181Z,33.10
2019-03-27T14:08:26.371Z,31.00
2019-03-27T14:10:55.197Z,32.00
2019-03-27T14:13:24.035Z,31.50
2019-03-27T14:15:53.010Z,30.80
2019-03-27T14:18:22.324Z,30.50
2019-03-27T14:20:53.583Z,30.70
2019-03-27T14:23:23.878Z,30.90
2019-03-27T14:25:52.914Z,30.70
2019-03-27T14:28:21.569Z,30.40
2019-03-27T14:30:53.553Z,30.00
2019-03-27T14:33:22.358Z,28.70
2019-03-27T14:35:51.567Z,29.90
2019-03-27T14:38:20.753Z,30.00
2019-03-27T14:40:50.797Z,31.30
2019-03-27T14:43:26.744Z,31.60
2019-03-27T14:45:54.389Z,31.40
2019-03-27T14:48:24.421Z,31.50
2019-03-27T14:50:55.076Z,32.90
2019-03-27T14:53:23.753Z,32.20
2019-03-27T14:55:52.450Z,31.70
2019-03-27T14:58:23.469Z,32.20
2019-03-27T15:00:52.234Z,32.00
2019-03-27T15:03:20.929Z,31.50
2019-03-27T15:05:49.838Z,32.20
2019-03-27T15:08:18.648Z,32.40
2019-03-27T15:10:48.737Z,31.10
2019-03-27T15:13:17.634Z,31.60
2019-03-27T15:15:46.344Z,30.80
2019-03-27T15:18:17.382Z,32.30
2019-03-27T15:20:46.363Z,31.60
2019-03-27T15:23:18.377Z,31.00
2019-03-27T15:25:47.049Z,31.70
2019-03-27T15:28:15.884Z,32.60
2019-03-27T15:30:44.860Z,31.40
2019-03-27T15:33:13.698Z,32.70
2019-03-27T15:35:44.630Z,32.50
2019-03-27T15:38:13.430Z,32.30
2019-03-27T15:40:45.244Z,33.00
2019-03-27T15:43:14.427Z,32.50
2019-03-27T15:45:46.248Z,33.20
2019-03-27T15:48:15.159Z,33.50
2019-03-27T15:50:55.211Z,32.90
2019-03-27T15:53:14.669Z,34.00
2019-03-27T15:55:43.659Z,33.30
2019-03-27T15:58:14.485Z,34.00
2019-03-27T16:00:43.381Z,34.70
2019-03-27T16:03:12.309Z,35.00
2019-03-27T16:05:41.337Z,35.10
2019-03-27T16:08:10.330Z,34.40
2019-03-27T16:10:39.179Z,35.50
2019-03-27T16:13:07.870Z,35.90
2019-03-27T16:15:38.965Z,36.10
2019-03-27T16:18:07.984Z,37.00
2019-03-27T16:20:36.896Z,35.20
2019-03-27T16:23:05.793Z,35.80
2019-03-27T16:25:34.487Z,36.10
2019-03-27T16:28:03.415Z,35.50
2019-03-27T16:30:32.316Z,36.00
2019-03-27T16:33:01.006Z,35.20
2019-03-27T16:35:30.224Z,34.80
2019-03-27T16:37:59.178Z,34.80
2019-03-27T16:40:44.438Z,36.10
2019-03-27T16:43:15.968Z,36.10
2019-03-27T16:45:44.710Z,37.30
2019-03-27T16:48:14.938Z,36.80
2019-03-27T16:50:44.739Z,36.90
2019-03-27T16:53:14.491Z,36.70
2019-03-27T16:55:44.409Z,36.90
2019-03-27T16:58:14.372Z,36.90
2019-03-27T17:00:43.091Z,36.00
2019-03-27T17:03:12.012Z,36.00
2019-03-27T17:05:53.243Z,36.10
2019-03-27T17:08:13.646Z,35.90
2019-03-27T17:10:42.423Z,35.80
2019-03-27T17:13:11.241Z,35.10
2019-03-27T17:15:40.159Z,35.90
2019-03-27T17:18:10.591Z,36.40
2019-03-27T17:20:39.485Z,36.00
2019-03-27T17:23:18.168Z,36.70
2019-03-27T17:25:40.874Z,36.00
2019-03-27T17:28:09.681Z,38.00
2019-03-27T17:30:38.696Z,38.10
2019-03-27T17:33:07.734Z,38.30
2019-03-27T17:35:36.439Z,38.70
2019-03-27T17:38:06.202Z,37.60
2019-03-27T17:40:34.916Z,37.00
2019-03-27T17:43:03.658Z,38.40
2019-03-27T17:45:32.633Z,37.60
2019-03-27T17:48:01.738Z,38.30
2019-03-27T17:50:33.986Z,38.70
2019-03-27T17:53:08.371Z,38.80
2019-03-27T17:55:37.298Z,39.00
2019-03-27T17:58:06.936Z,39.70
2019-03-27T18:00:43.836Z,40.00
2019-03-27T18:03:12.550Z,41.00
2019-03-27T18:05:41.384Z,40.20
2019-03-27T18:08:10.286Z,39.70
2019-03-27T18:10:39.328Z,38.80
2019-03-27T18:13:08.392Z,38.30
2019-03-27T18:15:39.340Z,38.60
2019-03-27T18:18:08.198Z,40.10
2019-03-27T18:20:39.560Z,39.90
2019-03-27T18:23:08.293Z,38.90
2019-03-27T18:25:37.589Z,40.00
2019-03-27T18:28:06.314Z,39.70
2019-03-27T18:30:35.200Z,39.80
2019-03-27T18:33:04.065Z,40.40
2019-03-27T18:35:32.735Z,40.30
2019-03-27T18:38:02.225Z,40.20
2019-03-27T18:40:30.938Z,39.70
2019-03-27T18:42:59.805Z,39.00
2019-03-27T18:45:28.544Z,39.80
2019-03-27T18:47:57.233Z,39.30
2019-03-27T18:50:26.405Z,39.60
2019-03-27T18:52:55.117Z,38.50
2019-03-27T18:55:27.120Z,39.10
2019-03-27T18:58:00.268Z,38.60
2019-03-27T19:00:27.095Z,40.60
2019-03-27T19:02:56.207Z,40.20
2019-03-27T19:05:25.027Z,40.60
2019-03-27T19:07:53.835Z,40.20
2019-03-27T19:10:22.933Z,40.40
2019-03-27T19:12:51.913Z,41.10
2019-03-27T19:15:20.782Z,40.20
2019-03-27T19:17:49.672Z,42.00
2019-03-27T19:20:18.735Z,41.90
2019-03-27T19:22:47.652Z,42.70
2019-03-27T19:25:16.444Z,42.40
2019-03-27T19:27:45.120Z,43.10
2019-03-27T19:30:15.997Z,42.60
2019-03-27T19:32:44.999Z,45.10
2019-03-27T19:35:14.077Z,43.90
2019-03-27T19:37:42.798Z,46.10
2019-03-27T19:40:12.149Z,47.20
2019-03-27T19:42:41.184Z,48.10
2019-03-27T19:45:10.123Z,48.70
2019-03-27T19:47:39.125Z,47.50
2019-03-27T19:50:09.787Z,48.10
2019-03-27T19:52:38.606Z,48.60
2019-03-27T19:55:07.635Z,47.90
2019-03-27T19:57:36.633Z,48.20
2019-03-27T20:00:08.142Z,47.20
2019-03-27T20:02:36.845Z,48.00
2019-03-27T20:05:06.704Z,47.90
2019-03-27T20:07:37.336Z,48.00
2019-03-27T20:10:07.017Z,46.30
2019-03-27T20:12:35.802Z,48.60
2019-03-27T20:15:11.848Z,48.20
2019-03-27T20:17:37.169Z,48.30
2019-03-27T20:20:07.442Z,48.40
2019-03-27T20:22:36.443Z,48.30
2019-03-27T20:25:06.186Z,48.40
2019-03-27T20:27:35.091Z,48.30
2019-03-27T20:30:05.590Z,48.20
2019-03-27T20:32:34.524Z,47.80
2019-03-27T20:35:04.073Z,47.60
2019-03-27T20:37:32.764Z,46.20
2019-03-27T20:40:03.497Z,46.40
2019-03-27T20:42:32.567Z,46.90
2019-03-27T20:45:01.327Z,46.10
2019-03-27T20:47:30.206Z,46.60
2019-03-27T20:49:59.048Z,46.10
2019-03-27T20:52:28.846Z,45.50
2019-03-27T20:54:57.532Z,46.40
2019-03-27T20:57:26.375Z,46.80
2019-03-27T20:59:55.517Z,47.00
2019-03-27T21:02:24.430Z,47.60
2019-03-27T21:04:53.164Z,46.70
2019-03-27T21:07:24.503Z,47.20
2019-03-27T21:09:53.389Z,45.70
2019-03-27T21:12:22.291Z,47.20
2019-03-27T21:14:51.100Z,47.60
2019-03-27T21:17:20.036Z,48.20
2019-03-27T21:19:49.862Z,47.60
2019-03-27T21:22:18.762Z,48.70
2019-03-27T21:24:47.434Z,48.30
2019-03-27T21:27:16.971Z,47.50
2019-03-27T21:29:45.997Z,47.20
2019-03-27T21:32:14.735Z,46.00
2019-03-27T21:34:43.636Z,47.50
2019-03-27T21:37:13.220Z,47.60
2019-03-27T21:39:41.967Z,47.60
2019-03-27T21:42:12.590Z,47.10
2019-03-27T21:44:42.553Z,47.60
2019-03-27T21:47:11.405Z,47.80
2019-03-27T21:49:40.325Z,48.00
2019-03-27T21:52:09.535Z,47.90
2019-03-27T21:54:38.367Z,47.60
2019-03-27T21:57:07.428Z,47.30
2019-03-27T21:59:36.329Z,47.50
2019-03-27T22:02:07.299Z,48.20
2019-03-27T22:04:36.308Z,48.70
2019-03-27T22:07:05.288Z,48.50
2019-03-27T22:09:34.053Z,48.70
2019-03-27T22:12:03.361Z,49.40
2019-03-27T22:14:32.262Z,50.00
2019-03-27T22:17:01.479Z,49.40
2019-03-27T22:19:30.208Z,49.30
2019-03-27T22:21:59.347Z,48.30
2019-03-27T22:24:28.043Z,49.40
2019-03-27T22:26:57.996Z,49.40
2019-03-27T22:29:26.840Z,50.40
2019-03-27T22:31:55.743Z,49.30
2019-03-27T22:34:24.467Z,49.80
2019-03-27T22:36:55.045Z,50.50
2019-03-27T22:39:23.951Z,50.40
2019-03-27T22:41:52.862Z,50.90
2019-03-27T22:44:22.766Z,51.00
2019-03-27T22:46:51.873Z,51.70
2019-03-27T22:49:20.619Z,50.90
2019-03-27T22:51:49.333Z,51.60
2019-03-27T22:54:18.236Z,52.40
2019-03-27T22:56:47.006Z,51.10
2019-03-27T22:59:15.749Z,52.60
2019-03-27T23:01:47.036Z,53.00
2019-03-27T23:04:16.174Z,53.20
2019-03-27T23:06:44.876Z,53.40
2019-03-27T23:09:14.893Z,53.30
2019-03-27T23:11:43.658Z,53.00
2019-03-27T23:14:13.393Z,53.10
2019-03-27T23:16:42.283Z,53.20
2019-03-27T23:19:11.468Z,53.20
2019-03-27T23:21:40.168Z,52.50
2019-03-27T23:24:09.083Z,53.00
2019-03-27T23:26:38.213Z,54.30
2019-03-27T23:29:07.052Z,53.80
2019-03-27T23:31:36.246Z,53.70
2019-03-27T23:34:04.978Z,54.20
2019-03-27T23:36:33.701Z,54.30
2019-03-27T23:39:09.699Z,53.10
2019-03-27T23:41:38.452Z,54.10
2019-03-27T23:44:07.142Z,54.10
2019-03-27T23:46:36.291Z,54.60
2019-03-27T23:49:06.374Z,54.00
2019-03-27T23:51:36.774Z,53.40
2019-03-27T23:54:07.468Z,53.90
2019-03-27T23:56:39.177Z,53.70
2019-03-27T23:59:09.395Z,54.00
